createdAt,value
2022-11-28T00:02:00.019Z,100806.72
2022-11-28T00:04:27.707Z,100809.31
2022-11-28T00:06:55.394Z,100806.59
2022-11-28T00:09:23.206Z,100811.59
2022-11-28T00:11:50.965Z,100798.94
2022-11-28T00:14:20.643Z,100806.25
2022-11-28T00:16:48.784Z,100804.97
2022-11-28T00:19:16.803Z,100794.56
2022-11-28T00:21:44.448Z,100798.50
2022-11-28T00:24:12.167Z,100799.78
2022-11-28T00:26:42.151Z,100802.22
2022-11-28T00:29:10.808Z,100789.56
2022-11-28T00:31:43.760Z,100787.34
2022-11-28T00:34:14.004Z,100780.22
2022-11-28T00:36:43.645Z,100775.19
2022-11-28T00:39:11.224Z,100782.19
2022-11-28T00:41:38.991Z,100786.41
2022-11-28T00:44:06.966Z,100785.56
2022-11-28T00:46:34.729Z,100783.94
2022-11-28T00:49:03.787Z,100785.75
2022-11-28T00:51:33.375Z,100787.25
2022-11-28T00:54:03.849Z,100786.09
2022-11-28T00:56:34.655Z,100779.16
2022-11-28T00:59:02.639Z,100760.34
2022-11-28T01:01:32.047Z,100755.66
2022-11-28T01:04:02.394Z,100753.53
2022-11-28T01:06:34.667Z,100744.09
2022-11-28T01:09:04.673Z,100753.53
2022-11-28T01:11:32.675Z,100749.81
2022-11-28T01:14:02.272Z,100752.09
2022-11-28T01:16:30.382Z,100746.63
2022-11-28T01:18:58.505Z,100739.00
2022-11-28T01:21:27.187Z,100742.44
2022-11-28T01:23:56.249Z,100739.16
2022-11-28T01:26:26.320Z,100739.97
2022-11-28T01:28:54.448Z,100730.13
2022-11-28T01:31:24.950Z,100733.03
2022-11-28T01:33:53.365Z,100734.66
2022-11-28T01:36:22.034Z,100733.69
2022-11-28T01:38:50.293Z,100736.34
2022-11-28T01:41:22.565Z,100727.25
2022-11-28T01:44:02.593Z,100739.25
2022-11-28T01:46:31.852Z,100749.31
2022-11-28T01:49:05.270Z,100741.72
2022-11-28T01:51:33.419Z,100738.66
2022-11-28T01:54:01.413Z,100736.38
2022-11-28T01:56:39.263Z,100741.25
2022-11-28T01:59:11.542Z,100742.22
2022-11-28T02:01:40.464Z,100734.13
2022-11-28T02:04:08.245Z,100733.78
2022-11-28T02:06:36.871Z,100734.97
2022-11-28T02:09:04.998Z,100736.09
2022-11-28T02:11:57.991Z,100732.53
2022-11-28T02:14:45.078Z,100736.09
2022-11-28T02:17:22.144Z,100727.34
2022-11-28T02:20:22.268Z,100723.78
2022-11-28T02:22:59.099Z,100724.28
2022-11-28T02:26:07.550Z,100711.16
2022-11-28T02:28:51.492Z,100709.38
2022-11-28T02:31:33.390Z,100709.88
2022-11-28T02:34:05.899Z,100713.91
2022-11-28T02:36:38.154Z,100712.94
2022-11-28T02:39:13.549Z,100714.56
2022-11-28T02:41:46.458Z,100713.13
2022-11-28T02:44:17.442Z,100715.88
2022-11-28T02:46:53.360Z,100714.59
2022-11-28T02:49:24.977Z,100706.31
2022-11-28T02:51:57.180Z,100703.22
2022-11-28T02:54:27.310Z,100710.53
2022-11-28T02:56:56.168Z,100717.03
2022-11-28T02:59:30.324Z,100716.38
2022-11-28T03:01:58.326Z,100713.78
2022-11-28T03:04:36.057Z,100707.63
2022-11-28T03:07:16.422Z,100712.34
2022-11-28T03:10:06.147Z,100701.47
2022-11-28T03:12:47.707Z,100707.94
2022-11-28T03:15:21.013Z,100704.38
2022-11-28T03:17:56.211Z,100701.31
2022-11-28T03:20:32.465Z,100703.91
2022-11-28T03:23:11.059Z,100704.38
2022-11-28T03:25:48.799Z,100702.59
2022-11-28T03:28:23.257Z,100691.22
2022-11-28T03:30:55.956Z,100694.94
2022-11-28T03:33:26.475Z,100705.19
2022-11-28T03:35:59.353Z,100696.56
2022-11-28T03:38:31.569Z,100696.59
2022-11-28T03:41:04.048Z,100701.47
2022-11-28T03:43:37.686Z,100662.16
2022-11-28T03:46:09.919Z,100694.63
2022-11-28T03:48:42.998Z,100704.06
2022-11-28T03:51:17.289Z,100697.88
2022-11-28T03:53:52.101Z,100698.03
2022-11-28T03:56:26.314Z,100702.13
2022-11-28T03:58:59.151Z,100705.22
2022-11-28T04:01:32.589Z,100709.41
2022-11-28T04:04:11.306Z,100696.41
2022-11-28T04:06:51.658Z,100704.56
2022-11-28T04:09:24.692Z,100712.81
2022-11-28T04:11:56.478Z,100720.59
2022-11-28T04:14:30.405Z,100712.16
2022-11-28T04:17:08.994Z,100711.84
2022-11-28T04:19:39.522Z,100715.72
2022-11-28T04:22:14.190Z,100714.09
2022-11-28T04:24:47.421Z,100700.81
2022-11-28T04:27:19.208Z,100718.97
2022-11-28T04:29:51.468Z,100717.84
2022-11-28T04:32:20.606Z,100714.59
2022-11-28T04:34:53.726Z,100712.50
2022-11-28T04:37:24.156Z,100716.53
2022-11-28T04:39:53.327Z,100716.03
2022-11-28T04:42:24.455Z,100699.50
2022-11-28T04:44:56.634Z,100714.25
2022-11-28T04:47:25.449Z,100712.47
2022-11-28T04:49:53.072Z,100721.88
2022-11-28T04:52:30.261Z,100675.94
2022-11-28T04:55:03.193Z,100712.63
2022-11-28T04:57:36.057Z,100713.13
2022-11-28T05:00:09.024Z,100715.22
2022-11-28T05:02:37.762Z,100728.06
2022-11-28T05:05:08.374Z,100716.19
2022-11-28T05:07:37.405Z,100722.53
2022-11-28T05:10:05.645Z,100728.41
2022-11-28T05:12:33.284Z,100725.63
2022-11-28T05:15:00.934Z,100730.97
2022-11-28T05:17:28.855Z,100732.28
2022-11-28T05:19:56.403Z,100737.63
2022-11-28T05:22:24.060Z,100735.03
2022-11-28T05:24:53.074Z,100746.22
2022-11-28T05:27:20.641Z,100736.66
2022-11-28T05:29:52.127Z,100754.69
2022-11-28T05:32:20.030Z,100755.00
2022-11-28T05:34:47.641Z,100763.59
2022-11-28T05:37:15.292Z,100751.22
2022-11-28T05:39:43.126Z,100753.66
2022-11-28T05:42:12.295Z,100758.06
2022-11-28T05:44:40.086Z,100750.75
2022-11-28T05:47:07.695Z,100754.03
2022-11-28T05:49:35.477Z,100755.00
2022-11-28T05:52:03.056Z,100752.09
2022-11-28T05:54:31.627Z,100757.59
2022-11-28T05:56:59.344Z,100763.44
2022-11-28T05:59:28.244Z,100759.06
2022-11-28T06:01:55.756Z,100761.16
2022-11-28T06:04:23.499Z,100764.09
2022-11-28T06:06:51.893Z,100763.94
2022-11-28T06:09:24.514Z,100766.34
2022-11-28T06:11:53.401Z,100764.91
2022-11-28T06:14:21.094Z,100766.34
2022-11-28T06:16:50.055Z,100764.41
2022-11-28T06:19:17.712Z,100769.63
2022-11-28T06:21:45.868Z,100765.38
2022-11-28T06:24:13.523Z,100770.13
2022-11-28T06:26:41.144Z,100754.53
2022-11-28T06:29:08.745Z,100760.06
2022-11-28T06:31:36.373Z,100766.72
2022-11-28T06:34:05.365Z,100762.94
2022-11-28T06:36:32.968Z,100778.06
2022-11-28T06:39:00.558Z,100783.94
2022-11-28T06:41:28.143Z,100770.94
2022-11-28T06:43:56.391Z,100769.16
2022-11-28T06:46:24.522Z,100772.25
2022-11-28T06:48:53.342Z,100778.56
2022-11-28T06:51:22.665Z,100779.22
2022-11-28T06:53:50.887Z,100774.69
2022-11-28T06:56:21.065Z,100780.03
2022-11-28T06:58:55.718Z,100784.09
2022-11-28T07:01:24.769Z,100779.06
2022-11-28T07:03:54.274Z,100783.09
2022-11-28T07:06:25.177Z,100795.78
2022-11-28T07:08:53.591Z,100794.16
2022-11-28T07:11:24.006Z,100794.97
2022-11-28T07:13:52.326Z,100782.03
2022-11-28T07:16:22.196Z,100789.47
2022-11-28T07:18:50.229Z,100796.94
2022-11-28T07:21:18.883Z,100780.66
2022-11-28T07:23:48.294Z,100797.78
2022-11-28T07:26:19.067Z,100809.94
2022-11-28T07:28:47.403Z,100804.41
2022-11-28T07:31:17.188Z,100814.31
2022-11-28T07:33:47.453Z,100819.19
2022-11-28T07:36:17.502Z,100820.50
2022-11-28T07:38:48.792Z,100826.00
2022-11-28T07:41:16.700Z,100814.63
2022-11-28T07:43:45.825Z,100821.31
2022-11-28T07:46:16.679Z,100823.91
2022-11-28T07:48:45.027Z,100820.19
2022-11-28T07:51:14.109Z,100818.88
2022-11-28T07:53:42.203Z,100834.78
2022-11-28T07:56:14.886Z,100826.66
2022-11-28T07:58:44.142Z,100828.81
2022-11-28T08:01:14.044Z,100832.06
2022-11-28T08:03:41.965Z,100829.16
2022-11-28T08:06:10.255Z,100821.81
2022-11-28T08:08:38.262Z,100812.44
2022-11-28T08:11:09.000Z,100822.31
2022-11-28T08:13:38.993Z,100831.91
2022-11-28T08:16:08.599Z,100831.75
2022-11-28T08:18:36.719Z,100824.09
2022-11-28T08:21:06.234Z,100830.75
2022-11-28T08:23:35.378Z,100829.78
2022-11-28T08:26:03.141Z,100824.09
2022-11-28T08:28:31.545Z,100821.66
2022-11-28T08:31:03.946Z,100825.91
2022-11-28T08:33:31.543Z,100827.06
2022-11-28T08:35:59.121Z,100842.81
2022-11-28T08:38:26.617Z,100843.63
2022-11-28T08:41:02.067Z,100857.25
2022-11-28T08:43:29.636Z,100852.72
2022-11-28T08:45:57.821Z,100837.13
2022-11-28T08:48:26.965Z,100831.59
2022-11-28T08:50:55.139Z,100839.56
2022-11-28T08:53:22.912Z,100828.50
2022-11-28T08:55:50.663Z,100852.88
2022-11-28T08:58:18.288Z,100844.59
2022-11-28T09:00:46.213Z,100842.50
2022-11-28T09:03:15.741Z,100843.78
2022-11-28T09:05:46.101Z,100848.84
2022-11-28T09:08:13.817Z,100846.09
2022-11-28T09:10:41.981Z,100849.31
2022-11-28T09:13:09.982Z,100844.78
2022-11-28T09:15:40.477Z,100845.59
2022-11-28T09:18:08.267Z,100843.50
2022-11-28T09:20:36.414Z,100841.84
2022-11-28T09:23:05.560Z,100841.19
2022-11-28T09:25:35.672Z,100841.84
2022-11-28T09:28:03.224Z,100845.41
2022-11-28T09:30:30.844Z,100846.56
2022-11-28T09:32:58.424Z,100836.16
2022-11-28T09:35:26.234Z,100846.09
2022-11-28T09:37:53.857Z,100841.53
2022-11-28T09:40:29.910Z,100842.50
2022-11-28T09:42:59.459Z,100845.47
2022-11-28T09:45:27.239Z,100857.78
2022-11-28T09:47:57.268Z,100853.44
2022-11-28T09:50:27.783Z,100855.50
2022-11-28T09:53:00.451Z,100855.03
2022-11-28T09:55:36.157Z,100855.50
2022-11-28T09:58:09.899Z,100862.38
2022-11-28T10:00:43.673Z,100868.03
2022-11-28T10:03:33.685Z,100860.53
2022-11-28T10:06:11.122Z,100864.34
2022-11-28T10:08:48.400Z,100863.16
2022-11-28T10:11:32.135Z,100872.47
2022-11-28T10:14:14.155Z,100876.84
2022-11-28T10:16:53.978Z,100882.88
2022-11-28T10:19:53.485Z,100874.91
2022-11-28T10:22:21.405Z,100884.81
2022-11-28T10:24:54.824Z,100879.13
2022-11-28T10:27:30.140Z,100884.16
2022-11-28T10:30:02.185Z,100875.06
2022-11-28T10:32:34.153Z,100877.50
2022-11-28T10:35:05.314Z,100881.56
2022-11-28T10:37:37.788Z,100875.84
2022-11-28T10:40:17.735Z,100875.69
2022-11-28T10:42:53.755Z,100860.69
2022-11-28T10:45:28.254Z,100862.66
2022-11-28T10:48:38.442Z,100858.44
2022-11-28T10:51:10.520Z,100853.03
2022-11-28T10:53:45.035Z,100859.03
2022-11-28T10:56:24.173Z,100854.31
2022-11-28T10:58:59.603Z,100865.19
2022-11-28T11:01:30.769Z,100863.59
2022-11-28T11:03:58.473Z,100862.59
2022-11-28T11:06:36.092Z,100863.09
2022-11-28T11:09:10.588Z,100857.41
2022-11-28T11:11:50.154Z,100864.88
2022-11-28T11:14:34.191Z,100868.00
2022-11-28T11:17:01.791Z,100878.09
2022-11-28T11:19:31.516Z,100876.09
2022-11-28T11:22:03.353Z,100868.44
2022-11-28T11:24:31.560Z,100876.25
2022-11-28T11:27:06.689Z,100880.50
2022-11-28T11:29:37.935Z,100882.78
2022-11-28T11:32:07.592Z,100883.56
2022-11-28T11:34:39.355Z,100877.56
2022-11-28T11:37:22.613Z,100883.75
2022-11-28T11:39:52.313Z,100877.81
2022-11-28T11:42:23.446Z,100873.63
2022-11-28T11:44:52.743Z,100875.13
2022-11-28T11:47:20.357Z,100877.22
2022-11-28T11:49:49.578Z,100871.38
2022-11-28T11:52:23.234Z,100866.34
2022-11-28T11:54:58.733Z,100872.16
2022-11-28T11:57:33.987Z,100876.72
2022-11-28T12:00:07.718Z,100870.41
2022-11-28T12:02:40.850Z,100871.22
2022-11-28T12:05:14.317Z,100876.22
2022-11-28T12:07:53.501Z,100880.13
2022-11-28T12:10:26.094Z,100871.31
2022-11-28T12:12:54.092Z,100869.66
2022-11-28T12:15:32.694Z,100879.09
2022-11-28T12:18:13.939Z,100883.66
2022-11-28T12:21:00.468Z,100873.38
2022-11-28T12:23:45.170Z,100868.63
2022-11-28T12:26:21.912Z,100862.28
2022-11-28T12:29:06.042Z,100880.00
2022-11-28T12:31:47.954Z,100876.84
2022-11-28T12:34:29.379Z,100875.84
2022-11-28T12:37:08.122Z,100875.59
2022-11-28T12:39:40.845Z,100879.00
2022-11-28T12:42:30.432Z,100877.06
2022-11-28T12:45:20.231Z,100871.19
2022-11-28T12:48:00.111Z,100879.06
2022-11-28T12:50:34.023Z,100878.38
2022-11-28T12:53:24.405Z,100882.59
2022-11-28T12:55:57.627Z,100880.81
2022-11-28T12:58:30.707Z,100884.16
2022-11-28T13:01:08.251Z,100890.03
2022-11-28T13:03:43.648Z,100887.44
2022-11-28T13:06:25.631Z,100899.97
2022-11-28T13:09:15.024Z,100902.56
2022-11-28T13:11:54.338Z,100905.78
2022-11-28T13:14:32.748Z,100894.00
2022-11-28T13:17:08.557Z,100899.53
2022-11-28T13:19:47.841Z,100896.97
2022-11-28T13:22:23.423Z,100894.19
2022-11-28T13:25:00.743Z,100898.09
2022-11-28T13:27:38.039Z,100890.91
2022-11-28T13:30:17.965Z,100891.44
2022-11-28T13:32:48.911Z,100884.91
2022-11-28T13:35:19.671Z,100888.31
2022-11-28T13:40:46.780Z,100892.63
2022-11-28T13:43:18.924Z,100902.81
2022-11-28T13:45:48.163Z,100898.25
2022-11-28T13:51:42.788Z,100913.09
2022-11-28T13:54:45.516Z,100909.91
2022-11-28T13:57:22.455Z,100919.13
2022-11-28T14:00:01.718Z,100923.84
2022-11-28T14:02:45.226Z,100922.16
2022-11-28T14:05:35.399Z,100916.06
2022-11-28T14:08:07.094Z,100918.97
2022-11-28T14:10:56.690Z,100916.81
2022-11-28T14:13:44.681Z,100907.75
2022-11-28T14:16:23.694Z,100916.03
2022-11-28T14:19:04.804Z,100917.81
2022-11-28T14:21:43.988Z,100928.38
2022-11-28T14:24:21.481Z,100931.97
2022-11-28T14:26:58.603Z,100932.44
2022-11-28T14:29:31.920Z,100925.69
2022-11-28T14:32:29.647Z,100925.78
2022-11-28T14:34:48.905Z,100934.63
2022-11-28T14:37:48.667Z,100937.88
2022-11-28T14:41:05.456Z,100937.81
2022-11-28T14:43:39.305Z,100935.13
2022-11-28T14:46:23.616Z,100936.81
2022-11-28T14:49:20.224Z,100938.94
2022-11-28T14:52:37.935Z,100941.44
2022-11-28T14:55:15.935Z,100932.44
2022-11-28T14:57:55.259Z,100937.28
2022-11-28T15:00:27.668Z,100932.16
2022-11-28T15:03:11.262Z,100938.66
2022-11-28T15:05:45.070Z,100947.69
2022-11-28T15:08:26.218Z,100944.38
2022-11-28T15:11:04.271Z,100942.50
2022-11-28T15:13:42.411Z,100955.16
2022-11-28T15:16:14.723Z,100952.50
2022-11-28T15:18:50.532Z,100957.81
2022-11-28T15:21:20.105Z,100968.59
2022-11-28T15:23:47.928Z,100963.16
2022-11-28T15:26:29.980Z,100965.34
2022-11-28T15:29:10.816Z,100969.19
2022-11-28T15:31:39.851Z,100976.81
2022-11-28T15:34:10.255Z,100980.97
2022-11-28T15:36:40.024Z,100972.44
2022-11-28T15:39:25.628Z,100980.81
2022-11-28T15:41:53.522Z,100987.19
2022-11-28T15:44:21.211Z,100997.56
2022-11-28T15:46:50.442Z,100994.47
2022-11-28T15:49:26.297Z,101004.41
2022-11-28T15:51:55.395Z,101006.69
2022-11-28T15:54:32.889Z,101014.53
2022-11-28T15:57:01.739Z,101012.13
2022-11-28T15:59:29.497Z,101010.69
2022-11-28T16:02:03.096Z,101010.59
2022-11-28T16:04:31.801Z,101013.09
2022-11-28T16:07:02.537Z,101017.13
2022-11-28T16:09:34.897Z,101022.03
2022-11-28T16:12:04.032Z,101026.09
2022-11-28T16:14:33.931Z,101018.50
2022-11-28T16:17:07.870Z,101027.31
2022-11-28T16:19:38.208Z,101027.13
2022-11-28T16:22:09.215Z,101036.41
2022-11-28T16:24:46.067Z,101030.44
2022-11-28T16:27:29.063Z,101045.00
2022-11-28T16:29:57.264Z,101031.97
2022-11-28T16:32:38.018Z,101040.69
2022-11-28T16:35:08.602Z,101035.56
2022-11-28T16:37:36.327Z,101033.94
2022-11-28T16:40:07.860Z,101042.63
2022-11-28T16:42:36.392Z,101036.34
2022-11-28T16:45:16.505Z,101037.34
2022-11-28T16:47:46.343Z,101040.13
2022-11-28T16:50:21.869Z,101039.16
2022-11-28T16:52:51.291Z,101043.22
2022-11-28T16:55:39.777Z,101040.28
2022-11-28T16:58:19.556Z,101051.69
2022-11-28T17:00:57.735Z,101054.19
2022-11-28T17:03:49.299Z,101052.56
2022-11-28T17:06:20.872Z,101054.03
2022-11-28T17:08:48.712Z,101052.53
2022-11-28T17:11:17.912Z,101048.97
2022-11-28T17:13:45.515Z,101068.66
2022-11-28T17:16:17.190Z,101076.47
2022-11-28T17:18:45.721Z,101076.41
2022-11-28T17:21:16.260Z,101073.53
2022-11-28T17:23:44.269Z,101075.09
2022-11-28T17:26:12.152Z,101077.69
2022-11-28T17:28:40.170Z,101072.19
2022-11-28T17:31:07.992Z,101074.50
2022-11-28T17:33:38.383Z,101067.44
2022-11-28T17:36:10.922Z,101074.72
2022-11-28T17:38:40.033Z,101084.19
2022-11-28T17:41:12.768Z,101075.34
2022-11-28T17:43:40.415Z,101087.16
2022-11-28T17:46:08.171Z,101084.44
2022-11-28T17:48:35.864Z,101093.38
2022-11-28T17:51:03.716Z,101093.22
2022-11-28T17:53:31.426Z,101099.22
2022-11-28T17:56:00.617Z,101090.91
2022-11-28T17:58:28.763Z,101097.56
2022-11-28T18:01:00.526Z,101094.81
2022-11-28T18:03:29.070Z,101095.63
2022-11-28T18:05:56.680Z,101093.06
2022-11-28T18:08:24.377Z,101104.09
2022-11-28T18:11:02.318Z,101103.41
2022-11-28T18:13:31.221Z,101101.78
2022-11-28T18:15:59.018Z,101102.09
2022-11-28T18:18:26.655Z,101102.44
2022-11-28T18:20:54.287Z,101107.28
2022-11-28T18:23:21.977Z,101103.19
2022-11-28T18:25:49.644Z,101106.47
2022-11-28T18:28:19.060Z,101114.91
2022-11-28T18:30:48.681Z,101100.91
2022-11-28T18:33:17.132Z,101114.25
2022-11-28T18:35:44.749Z,101122.41
2022-11-28T18:38:12.617Z,101122.09
2022-11-28T18:40:40.511Z,101116.63
2022-11-28T18:43:08.178Z,101119.06
2022-11-28T18:45:35.850Z,101124.31
2022-11-28T18:48:04.925Z,101129.53
2022-11-28T18:50:32.532Z,101130.38
2022-11-28T18:53:00.220Z,101135.41
2022-11-28T18:55:27.833Z,101143.56
2022-11-28T18:57:55.412Z,101139.16
2022-11-28T19:00:23.749Z,101135.72
2022-11-28T19:02:52.048Z,101138.03
2022-11-28T19:05:21.069Z,101147.16
2022-11-28T19:07:48.687Z,101140.78
2022-11-28T19:10:16.368Z,101156.59
2022-11-28T19:12:43.998Z,101154.16
2022-11-28T19:15:11.889Z,101157.41
2022-11-28T19:17:39.488Z,101164.38
2022-11-28T19:20:09.740Z,101156.25
2022-11-28T19:22:38.677Z,101160.66
2022-11-28T19:25:07.616Z,101155.09
2022-11-28T19:27:35.525Z,101164.19
2022-11-28T19:30:03.282Z,101158.84
2022-11-28T19:32:30.945Z,101171.03
2022-11-28T19:34:58.526Z,101162.09
2022-11-28T19:37:26.075Z,101157.81
2022-11-28T19:39:59.742Z,101152.59
2022-11-28T19:42:29.856Z,101150.38
2022-11-28T19:44:57.582Z,101164.19
2022-11-28T19:47:25.233Z,101159.91
2022-11-28T19:49:52.847Z,101163.47
2022-11-28T19:52:20.573Z,101163.31
2022-11-28T19:54:48.289Z,101165.75
2022-11-28T19:57:17.350Z,101171.13
2022-11-28T19:59:45.309Z,101167.13
2022-11-28T20:02:13.343Z,101177.56
2022-11-28T20:04:43.418Z,101172.06
2022-11-28T20:07:11.029Z,101175.19
2022-11-28T20:09:38.700Z,101184.06
2022-11-28T20:12:07.250Z,101182.66
2022-11-28T20:14:36.329Z,101187.03
2022-11-28T20:17:03.937Z,101194.16
2022-11-28T20:19:31.772Z,101195.69
2022-11-28T20:22:00.661Z,101192.44
2022-11-28T20:24:30.166Z,101198.41
2022-11-28T20:26:57.948Z,101194.78
2022-11-28T20:29:27.828Z,101191.84
2022-11-28T20:31:57.593Z,101203.97
2022-11-28T20:34:25.577Z,101206.34
2022-11-28T20:36:53.803Z,101204.34
2022-11-28T20:39:21.952Z,101212.06
2022-11-28T20:41:49.612Z,101208.69
2022-11-28T20:44:17.621Z,101214.94
2022-11-28T20:46:46.283Z,101218.94
2022-11-28T20:49:16.066Z,101222.34
2022-11-28T20:51:43.929Z,101224.91
2022-11-28T20:54:12.632Z,101237.00
2022-11-28T20:57:12.880Z,101237.69
2022-11-28T20:59:27.825Z,101240.66
2022-11-28T21:01:55.633Z,101210.81
2022-11-28T21:04:24.801Z,101228.59
2022-11-28T21:06:52.456Z,101233.38
2022-11-28T21:09:20.639Z,101235.91
2022-11-28T21:11:57.923Z,101231.75
2022-11-28T21:14:26.029Z,101229.88
2022-11-28T21:16:53.641Z,101229.66
2022-11-28T21:19:21.431Z,101235.75
2022-11-28T21:21:50.383Z,101236.34
2022-11-28T21:24:18.132Z,101233.41
2022-11-28T21:26:52.650Z,101237.22
2022-11-28T21:29:21.592Z,101238.31
2022-11-28T21:31:49.567Z,101244.56
2022-11-28T21:34:18.922Z,101241.06
2022-11-28T21:36:46.526Z,101235.78
2022-11-28T21:39:17.555Z,101240.06
2022-11-28T21:41:45.438Z,101232.06
2022-11-28T21:44:13.217Z,101255.81
2022-11-28T21:46:40.823Z,101251.53
2022-11-28T21:49:08.557Z,101258.19
2022-11-28T21:51:36.173Z,101254.66
2022-11-28T21:54:03.846Z,101247.13
2022-11-28T21:56:32.898Z,101259.56
2022-11-28T21:59:00.735Z,101263.97
2022-11-28T22:01:28.461Z,101267.56
2022-11-28T22:04:01.942Z,101264.50
2022-11-28T22:06:30.378Z,101251.13
2022-11-28T22:08:58.093Z,101267.44
2022-11-28T22:11:26.054Z,101270.50
2022-11-28T22:13:55.071Z,101274.44
2022-11-28T22:16:25.128Z,101270.50
2022-11-28T22:18:54.627Z,101264.56
2022-11-28T22:24:11.098Z,101270.97
2022-11-28T22:26:38.774Z,101279.59
2022-11-28T22:29:07.852Z,101280.13
2022-11-28T22:31:35.698Z,101275.63
2022-11-28T22:34:03.361Z,101286.25
2022-11-28T22:36:31.935Z,101271.25
2022-11-28T22:39:01.106Z,101281.66
2022-11-28T22:41:29.732Z,101283.38
2022-11-28T22:43:59.496Z,101285.22
2022-11-28T22:46:29.141Z,101283.44
2022-11-28T22:48:56.873Z,101284.84
2022-11-28T22:51:26.555Z,101281.78
2022-11-28T22:53:55.378Z,101288.84
2022-11-28T22:56:23.038Z,101283.06
2022-11-28T22:58:50.935Z,101289.03
2022-11-28T23:01:20.896Z,101282.25
2022-11-28T23:03:50.024Z,101284.53
2022-11-28T23:06:19.325Z,101285.34
2022-11-28T23:08:47.891Z,101291.38
2022-11-28T23:11:17.776Z,101294.09
2022-11-28T23:13:47.925Z,101290.00
2022-11-28T23:16:18.175Z,101294.28
2022-11-28T23:18:48.018Z,101294.25
2022-11-28T23:21:18.519Z,101290.09
2022-11-28T23:23:46.317Z,101296.44
2022-11-28T23:26:16.090Z,101300.59
2022-11-28T23:28:43.990Z,101292.75
2022-11-28T23:31:14.330Z,101298.16
2022-11-28T23:33:42.566Z,101300.22
2022-11-28T23:36:15.353Z,101284.84
2022-11-28T23:38:45.409Z,101297.19
2022-11-28T23:41:13.728Z,101304.97
2022-11-28T23:43:41.664Z,101292.63
2022-11-28T23:46:10.716Z,101291.19
2022-11-28T23:48:38.760Z,101301.13
2022-11-28T23:51:07.185Z,101297.03
2022-11-28T23:53:35.334Z,101294.91
2022-11-28T23:56:06.063Z,101303.72
2022-11-28T23:58:34.882Z,101306.13
